| Date | Time | Temp. (oF) | Dew Point (oF) | Rel. Hum. (%) | Press. (in.) | Wind Dir. | Wind Speed (mph) | Hourly Rainfall (in.) |
|
|---|---|---|---|---|---|---|---|---|---|
| 1 | 08/20 | 00:00 | 69 | 64 | 87 | 29.85 | E | 0 | 0.00 |
| 2 | 08/19 | 23:00 | 71 | 65 | 82 | 29.85 | SSE | 0 | 0.00 |
| 3 | 08/19 | 22:00 | 73 | 64 | 74 | 29.85 | S | 0 | 0.00 |
| 4 | 08/19 | 21:00 | 76 | 63 | 66 | 29.84 | SE | 0 | 0.00 |
| 5 | 08/19 | 20:00 | 80 | 61 | 54 | 29.82 | SSE | 0 | 0.00 |
| 6 | 08/19 | 19:00 | 84 | 61 | 47 | 29.81 | N | 0 | 0.00 |
| 7 | 08/19 | 18:00 | 87 | 61 | 43 | 29.81 | N | 4 | 0.00 |
| 8 | 08/19 | 17:00 | 88 | 60 | 40 | 29.82 | SSW | 0 | 0.00 |
| 9 | 08/19 | 16:00 | 88 | 62 | 43 | 29.83 | NNW | 0 | 0.00 |
| 10 | 08/19 | 15:00 | 88 | 63 | 44 | 29.86 | SW | 2 | 0.00 |
| 11 | 08/19 | 14:00 | 86 | 62 | 46 | 29.88 | NNE | 3 | 0.00 |
| 12 | 08/19 | 13:00 | 85 | 65 | 52 | 29.89 | SSW | 2 | 0.00 |
| 13 | 08/19 | 12:00 | 84 | 64 | 52 | 29.89 | NNE | 7 | 0.00 |
| 14 | 08/19 | 11:00 | 82 | 65 | 58 | 29.90 | N | 7 | 0.00 |
| 15 | 08/19 | 10:00 | 79 | 67 | 69 | 29.90 | SW | 4 | 0.00 |
| 16 | 08/19 | 09:00 | 75 | 68 | 79 | 29.91 | NE | 4 | 0.00 |
| 17 | 08/19 | 08:00 | 69 | 65 | 90 | 29.91 | N | 1 | 0.00 |
| 18 | 08/19 | 07:00 | 67 | 63 | 90 | 29.91 | SSE | 0 | 0.00 |
| 19 | 08/19 | 06:00 | 69 | 64 | 86 | 29.89 | NNE | 0 | 0.00 |
| 20 | 08/19 | 05:00 | 69 | 64 | 85 | 29.88 | N | 4 | 0.00 |
| 21 | 08/19 | 04:00 | 70 | 65 | 85 | 29.88 | NNW | 2 | 0.00 |
| 22 | 08/19 | 03:00 | 70 | 66 | 88 | 29.89 | SSE | 0 | 0.00 |
| 23 | 08/19 | 02:00 | 71 | 65 | 83 | 29.89 | SW | 0 | 0.00 |
| 24 | 08/19 | 01:00 | 72 | 67 | 85 | 29.89 | NNE | 3 | 0.00 |